createdAt,value
2022-10-25T00:00:29.028Z,12.40
2022-10-25T00:02:56.008Z,12.30
2022-10-25T00:05:23.133Z,12.30
2022-10-25T00:07:50.172Z,12.30
2022-10-25T00:10:18.381Z,12.30
2022-10-25T00:12:48.119Z,12.40
2022-10-25T00:15:15.362Z,12.30
2022-10-25T00:17:43.487Z,12.30
2022-10-25T00:20:12.247Z,12.20
2022-10-25T00:22:39.561Z,12.20
2022-10-25T00:25:08.979Z,12.10
2022-10-25T00:27:36.623Z,12.10
2022-10-25T00:30:05.456Z,12.10
2022-10-25T00:32:34.085Z,12.10
2022-10-25T00:35:01.188Z,12.00
2022-10-25T00:37:28.167Z,12.10
2022-10-25T00:39:55.130Z,12.10
2022-10-25T00:42:25.688Z,12.10
2022-10-25T00:44:56.786Z,12.10
2022-10-25T00:47:52.363Z,12.00
2022-10-25T00:50:37.276Z,12.00
2022-10-25T00:53:13.921Z,12.00
2022-10-25T00:55:45.739Z,12.00
2022-10-25T00:58:20.979Z,11.90
2022-10-25T01:00:48.994Z,11.90
2022-10-25T01:03:18.022Z,11.90
2022-10-25T01:05:45.950Z,11.90
2022-10-25T01:08:13.212Z,11.90
2022-10-25T01:10:40.609Z,12.00
2022-10-25T01:13:07.688Z,12.00
2022-10-25T01:15:50.961Z,12.00
2022-10-25T01:18:43.551Z,12.10
2022-10-25T01:21:50.042Z,12.10
2022-10-25T01:24:44.641Z,12.20
2022-10-25T01:27:32.554Z,12.20
2022-10-25T01:30:11.005Z,12.30
2022-10-25T01:33:07.371Z,12.30
2022-10-25T01:35:44.826Z,12.30
2022-10-25T01:38:44.636Z,12.30
2022-10-25T01:41:22.767Z,12.30
2022-10-25T01:43:56.261Z,12.30
2022-10-25T01:46:37.719Z,12.30
2022-10-25T01:49:09.298Z,12.30
2022-10-25T01:51:37.753Z,12.30
2022-10-25T01:54:19.122Z,12.30
2022-10-25T01:56:55.938Z,12.30
2022-10-25T01:59:39.491Z,12.30
2022-10-25T02:02:24.655Z,12.30
2022-10-25T02:05:23.212Z,12.30
2022-10-25T02:08:07.762Z,12.30
2022-10-25T02:10:53.095Z,12.40
2022-10-25T02:13:27.843Z,12.40
2022-10-25T02:16:07.587Z,12.40
2022-10-25T02:18:39.728Z,12.40
2022-10-25T02:21:07.258Z,12.30
2022-10-25T02:23:36.915Z,12.40
2022-10-25T02:26:08.367Z,12.40
2022-10-25T02:28:39.329Z,12.30
2022-10-25T02:31:14.830Z,12.40
2022-10-25T02:33:44.991Z,12.30
2022-10-25T02:36:18.959Z,12.30
2022-10-25T02:38:47.295Z,12.40
2022-10-25T02:41:14.453Z,12.40
2022-10-25T02:43:41.503Z,12.30
2022-10-25T02:46:18.281Z,12.40
2022-10-25T02:48:45.417Z,12.30
2022-10-25T02:51:13.839Z,12.30
2022-10-25T02:53:40.965Z,12.30
2022-10-25T02:56:12.828Z,12.30
2022-10-25T02:58:41.772Z,12.30
2022-10-25T03:01:09.596Z,12.30
2022-10-25T03:03:36.851Z,12.40
2022-10-25T03:06:04.603Z,12.40
2022-10-25T03:08:32.216Z,12.40
2022-10-25T03:10:59.473Z,12.30
2022-10-25T03:13:26.578Z,12.30
2022-10-25T03:15:53.651Z,12.30
2022-10-25T03:18:20.796Z,12.30
2022-10-25T03:20:48.101Z,12.30
2022-10-25T03:23:17.152Z,12.30
2022-10-25T03:25:44.264Z,12.30
2022-10-25T03:28:11.335Z,12.30
2022-10-25T03:30:38.312Z,12.30
2022-10-25T03:33:05.327Z,12.30
2022-10-25T03:35:32.317Z,12.30
2022-10-25T03:37:59.362Z,12.20
2022-10-25T03:40:26.447Z,12.20
2022-10-25T03:42:53.550Z,12.20
2022-10-25T03:45:20.597Z,12.20
2022-10-25T03:47:48.232Z,12.20
2022-10-25T03:50:15.410Z,12.20
2022-10-25T03:52:42.441Z,12.20
2022-10-25T03:55:10.107Z,12.20
2022-10-25T03:57:37.324Z,12.20
2022-10-25T04:00:05.274Z,12.20
2022-10-25T04:02:32.345Z,12.20
2022-10-25T04:04:59.311Z,12.30
2022-10-25T04:07:26.368Z,12.30
2022-10-25T04:09:53.384Z,12.30
2022-10-25T04:12:20.408Z,12.30
2022-10-25T04:14:47.362Z,12.30
2022-10-25T04:17:14.399Z,12.30
2022-10-25T04:19:41.407Z,12.30
2022-10-25T04:22:08.456Z,12.40
2022-10-25T04:24:35.458Z,12.40
2022-10-25T04:27:02.479Z,12.40
2022-10-25T04:29:29.522Z,12.40
2022-10-25T04:31:56.544Z,12.40
2022-10-25T04:34:23.598Z,12.30
2022-10-25T04:36:51.343Z,12.40
2022-10-25T04:39:18.586Z,12.40
2022-10-25T04:41:49.713Z,12.30
2022-10-25T04:44:17.701Z,12.40
2022-10-25T04:46:48.623Z,12.40
2022-10-25T04:49:17.989Z,12.40
2022-10-25T04:51:54.550Z,12.30
2022-10-25T04:54:21.815Z,12.30
2022-10-25T04:56:48.815Z,12.30
2022-10-25T04:59:15.841Z,12.30
2022-10-25T05:01:42.988Z,12.30
2022-10-25T05:04:10.071Z,12.30
2022-10-25T05:06:37.119Z,12.30
2022-10-25T05:09:04.557Z,12.30
2022-10-25T05:11:32.738Z,12.30
2022-10-25T05:13:59.885Z,12.20
2022-10-25T05:16:26.968Z,12.20
2022-10-25T05:18:55.612Z,12.20
2022-10-25T05:24:02.515Z,12.10
2022-10-25T05:26:31.102Z,12.00
2022-10-25T05:28:58.289Z,12.00
2022-10-25T05:31:27.829Z,12.00
2022-10-25T05:33:57.216Z,11.90
2022-10-25T05:36:25.559Z,11.90
2022-10-25T05:38:52.757Z,11.90
2022-10-25T05:41:19.852Z,11.90
2022-10-25T05:43:47.466Z,11.80
2022-10-25T05:46:20.365Z,11.70
2022-10-25T05:48:49.213Z,11.70
2022-10-25T05:51:34.714Z,11.60
2022-10-25T05:54:09.572Z,11.60
2022-10-25T05:56:37.743Z,11.60
2022-10-25T05:59:11.065Z,11.50
2022-10-25T06:01:44.195Z,11.50
2022-10-25T06:04:11.990Z,11.50
2022-10-25T06:06:40.187Z,11.50
2022-10-25T06:09:07.855Z,11.50
2022-10-25T06:11:35.645Z,11.40
2022-10-25T06:14:02.939Z,11.40
2022-10-25T06:16:30.013Z,11.40
2022-10-25T06:18:57.143Z,11.30
2022-10-25T06:21:27.566Z,11.40
2022-10-25T06:23:54.753Z,11.30
2022-10-25T06:26:24.758Z,11.30
2022-10-25T06:29:00.703Z,11.20
2022-10-25T06:31:28.444Z,11.20
2022-10-25T06:33:55.477Z,11.20
2022-10-25T06:36:24.407Z,11.20
2022-10-25T06:38:51.859Z,11.20
2022-10-25T06:41:25.029Z,11.20
2022-10-25T06:43:52.281Z,11.20
2022-10-25T06:46:29.490Z,11.30
2022-10-25T06:48:57.851Z,11.30
2022-10-25T06:51:26.558Z,11.30
2022-10-25T06:53:58.177Z,11.40
2022-10-25T06:56:26.320Z,11.40
2022-10-25T06:58:53.726Z,11.40
2022-10-25T07:01:22.453Z,11.50
2022-10-25T07:03:51.050Z,11.50
2022-10-25T07:06:21.897Z,11.60
2022-10-25T07:08:56.005Z,11.60
2022-10-25T07:11:25.098Z,11.60
2022-10-25T07:13:52.801Z,11.60
2022-10-25T07:16:21.570Z,11.70
2022-10-25T07:18:49.307Z,11.70
2022-10-25T07:21:25.230Z,11.80
2022-10-25T07:23:52.251Z,11.90
2022-10-25T07:26:23.478Z,11.90
2022-10-25T07:28:52.253Z,11.90
2022-10-25T07:31:21.898Z,12.00
2022-10-25T07:33:51.006Z,12.00
2022-10-25T07:36:18.027Z,12.00
2022-10-25T07:38:45.326Z,12.00
2022-10-25T07:41:12.724Z,12.10
2022-10-25T07:43:39.749Z,12.10
2022-10-25T07:46:07.767Z,12.10
2022-10-25T07:48:36.155Z,12.20
2022-10-25T07:51:05.176Z,12.20
2022-10-25T07:53:32.712Z,12.20
2022-10-25T07:56:00.075Z,12.30
2022-10-25T07:58:27.022Z,12.40
2022-10-25T08:00:59.896Z,12.40
2022-10-25T08:03:26.880Z,12.50
2022-10-25T08:05:54.251Z,12.50
2022-10-25T08:08:23.374Z,12.60
2022-10-25T08:10:50.969Z,12.60
2022-10-25T08:13:18.592Z,12.70
2022-10-25T08:15:52.784Z,12.70
2022-10-25T08:18:19.661Z,12.80
2022-10-25T08:21:01.882Z,12.80
2022-10-25T08:23:31.656Z,12.90
2022-10-25T08:25:59.381Z,13.00
2022-10-25T08:28:26.504Z,12.90
2022-10-25T08:30:56.397Z,13.00
2022-10-25T08:33:24.561Z,13.10
2022-10-25T08:35:51.660Z,13.20
2022-10-25T08:38:18.747Z,13.30
2022-10-25T08:41:03.312Z,13.40
2022-10-25T08:43:39.105Z,13.40
2022-10-25T08:46:47.345Z,13.40
2022-10-25T08:49:27.234Z,13.40
2022-10-25T08:51:56.603Z,13.50
2022-10-25T08:54:46.846Z,13.60
2022-10-25T08:57:34.513Z,13.70
2022-10-25T09:00:11.227Z,13.70
2022-10-25T09:02:53.506Z,13.80
2022-10-25T09:05:29.094Z,14.00
2022-10-25T09:08:15.422Z,14.00
2022-10-25T09:11:05.395Z,14.00
2022-10-25T09:14:10.638Z,14.00
2022-10-25T09:16:51.747Z,14.10
2022-10-25T09:19:32.296Z,14.20
2022-10-25T09:22:18.789Z,14.20
2022-10-25T09:24:57.996Z,14.20
2022-10-25T09:27:38.982Z,14.10
2022-10-25T09:30:07.745Z,14.20
2022-10-25T09:32:37.567Z,14.30
2022-10-25T09:35:12.173Z,14.30
2022-10-25T09:37:43.638Z,14.30
2022-10-25T09:40:19.506Z,14.30
2022-10-25T09:43:01.443Z,14.30
2022-10-25T09:45:52.060Z,14.40
2022-10-25T09:48:18.970Z,14.50
2022-10-25T09:50:57.916Z,14.50
2022-10-25T09:53:24.978Z,14.50
2022-10-25T09:56:03.882Z,14.60
2022-10-25T09:58:42.048Z,14.60
2022-10-25T10:01:12.220Z,14.70
2022-10-25T10:03:41.451Z,14.70
2022-10-25T10:06:32.375Z,14.60
2022-10-25T10:09:06.107Z,14.60
2022-10-25T10:11:34.645Z,14.60
2022-10-25T10:14:09.903Z,14.60
2022-10-25T10:16:50.238Z,14.50
2022-10-25T10:19:21.165Z,14.60
2022-10-25T10:22:02.372Z,14.50
2022-10-25T10:24:36.260Z,14.50
2022-10-25T10:27:09.928Z,14.50
2022-10-25T10:30:02.129Z,14.60
2022-10-25T10:35:29.534Z,14.80
2022-10-25T10:38:27.243Z,14.80
2022-10-25T10:41:14.311Z,14.90
2022-10-25T10:43:41.818Z,15.00
2022-10-25T10:46:24.882Z,15.10
2022-10-25T10:48:57.946Z,15.30
2022-10-25T10:51:45.722Z,15.40
2022-10-25T10:54:27.253Z,15.30
2022-10-25T10:57:07.377Z,15.30
2022-10-25T10:59:44.921Z,15.30
2022-10-25T11:02:21.880Z,15.30
2022-10-25T11:04:50.860Z,15.50
2022-10-25T11:07:35.690Z,15.40
2022-10-25T11:10:19.597Z,15.50
2022-10-25T11:13:17.761Z,15.40
2022-10-25T11:15:59.666Z,15.40
2022-10-25T11:18:51.350Z,15.50
2022-10-25T11:21:18.315Z,15.40
2022-10-25T11:24:10.171Z,15.50
2022-10-25T11:26:46.494Z,15.50
2022-10-25T11:29:26.234Z,15.60
2022-10-25T11:32:11.870Z,15.60
2022-10-25T11:35:00.364Z,15.60
2022-10-25T11:37:51.640Z,15.60
2022-10-25T11:40:23.150Z,15.80
2022-10-25T11:43:02.450Z,15.90
2022-10-25T11:45:44.658Z,16.00
2022-10-25T11:48:28.569Z,15.90
2022-10-25T11:50:58.626Z,15.80
2022-10-25T11:53:51.409Z,15.80
2022-10-25T11:56:36.664Z,15.80
2022-10-25T11:59:25.660Z,15.90
2022-10-25T12:02:18.062Z,16.00
2022-10-25T12:05:09.054Z,16.00
2022-10-25T12:07:48.857Z,16.00
2022-10-25T12:10:25.616Z,16.00
2022-10-25T12:13:15.531Z,16.00
2022-10-25T12:15:46.710Z,16.00
2022-10-25T12:18:29.832Z,16.00
2022-10-25T12:20:58.731Z,15.80
2022-10-25T12:23:28.157Z,15.70
2022-10-25T12:26:10.826Z,15.70
2022-10-25T12:28:48.827Z,15.80
2022-10-25T12:31:17.649Z,15.90
2022-10-25T12:33:48.097Z,15.90
2022-10-25T12:36:43.663Z,16.00
2022-10-25T12:39:21.859Z,16.10
2022-10-25T12:42:04.713Z,16.20
2022-10-25T12:44:59.474Z,16.20
2022-10-25T12:47:38.684Z,16.80
2022-10-25T12:50:30.708Z,17.00
2022-10-25T12:53:14.743Z,16.80
2022-10-25T12:56:15.915Z,16.80
2022-10-25T12:59:20.257Z,17.00
2022-10-25T13:02:10.477Z,16.90
2022-10-25T13:05:11.298Z,16.90
2022-10-25T13:07:38.823Z,16.80
2022-10-25T13:10:19.913Z,17.10
2022-10-25T13:13:05.757Z,17.10
2022-10-25T13:15:53.820Z,16.90
2022-10-25T13:18:32.558Z,16.50
2022-10-25T13:21:01.574Z,16.80
2022-10-25T13:23:44.188Z,17.10
2022-10-25T13:26:13.138Z,17.20
2022-10-25T13:28:55.055Z,17.10
2022-10-25T13:31:37.213Z,16.80
2022-10-25T13:34:13.259Z,16.90
2022-10-25T13:36:49.607Z,17.30
2022-10-25T13:39:30.051Z,17.70
2022-10-25T13:42:11.041Z,18.00
2022-10-25T13:44:48.643Z,18.00
2022-10-25T13:47:43.718Z,18.30
2022-10-25T13:50:27.318Z,18.40
2022-10-25T13:52:55.939Z,18.40
2022-10-25T13:55:25.488Z,18.30
2022-10-25T13:57:58.245Z,18.50
2022-10-25T14:00:27.802Z,18.30
2022-10-25T14:03:09.805Z,17.80
2022-10-25T14:05:55.402Z,18.00
2022-10-25T14:08:37.203Z,17.70
2022-10-25T14:11:25.702Z,17.50
2022-10-25T14:14:11.462Z,17.30
2022-10-25T14:16:44.627Z,17.70
2022-10-25T14:19:23.031Z,18.10
2022-10-25T14:21:53.366Z,18.20
2022-10-25T14:24:21.464Z,18.30
2022-10-25T14:26:57.679Z,18.30
2022-10-25T14:29:29.723Z,18.30
2022-10-25T14:31:57.583Z,18.30
2022-10-25T14:34:27.903Z,18.10
2022-10-25T14:36:57.018Z,18.10
2022-10-25T14:39:32.813Z,18.20
2022-10-25T14:42:02.365Z,18.00
2022-10-25T14:44:50.265Z,17.80
2022-10-25T14:47:32.089Z,17.70
2022-10-25T14:50:00.505Z,17.70
2022-10-25T14:52:30.436Z,17.70
2022-10-25T14:55:04.394Z,17.70
2022-10-25T14:57:35.245Z,17.80
2022-10-25T15:00:05.775Z,17.90
2022-10-25T15:02:40.697Z,17.60
2022-10-25T15:05:14.819Z,17.30
2022-10-25T15:07:42.858Z,17.00
2022-10-25T15:10:31.178Z,16.80
2022-10-25T15:13:32.370Z,16.70
2022-10-25T15:16:04.017Z,16.60
2022-10-25T15:18:34.084Z,16.50
2022-10-25T15:21:14.107Z,16.50
2022-10-25T15:24:05.022Z,16.40
2022-10-25T15:26:35.722Z,16.30
2022-10-25T15:29:07.222Z,16.10
2022-10-25T15:31:34.301Z,16.00
2022-10-25T15:34:03.327Z,15.90
2022-10-25T15:36:33.040Z,15.90
2022-10-25T15:39:09.242Z,15.80
2022-10-25T15:41:38.630Z,15.80
2022-10-25T15:44:05.671Z,15.60
2022-10-25T15:46:34.583Z,15.60
2022-10-25T15:49:04.779Z,15.50
2022-10-25T15:51:34.587Z,15.40
2022-10-25T15:54:01.923Z,15.20
2022-10-25T15:56:29.301Z,15.00
2022-10-25T15:58:58.799Z,14.90
2022-10-25T16:01:25.978Z,14.80
2022-10-25T16:03:54.113Z,14.70
2022-10-25T16:06:21.108Z,14.50
2022-10-25T16:08:48.794Z,14.50
2022-10-25T16:11:19.977Z,14.40
2022-10-25T16:13:51.765Z,14.30
2022-10-25T16:16:40.345Z,14.20
2022-10-25T16:19:26.403Z,14.10
2022-10-25T16:21:53.483Z,13.90
2022-10-25T16:24:20.760Z,13.90
2022-10-25T16:26:48.922Z,13.80
2022-10-25T16:29:18.621Z,13.70
2022-10-25T16:31:45.895Z,13.60
2022-10-25T16:34:15.541Z,13.60
2022-10-25T16:36:42.587Z,13.50
2022-10-25T16:39:11.507Z,13.50
2022-10-25T16:41:45.312Z,13.50
2022-10-25T16:44:14.260Z,13.50
2022-10-25T16:46:41.614Z,13.50
2022-10-25T16:49:09.679Z,13.50
2022-10-25T16:51:39.683Z,13.50
2022-10-25T16:54:07.487Z,13.50
2022-10-25T16:56:34.637Z,13.50
2022-10-25T16:59:01.623Z,13.50
2022-10-25T17:01:34.528Z,13.50
2022-10-25T17:04:03.198Z,13.50
2022-10-25T17:06:45.684Z,13.50
2022-10-25T17:09:12.999Z,13.40
2022-10-25T17:11:43.901Z,13.30
2022-10-25T17:14:12.197Z,13.30
2022-10-25T17:16:40.970Z,13.20
2022-10-25T17:19:12.942Z,13.20
2022-10-25T17:21:40.115Z,13.20
2022-10-25T17:24:09.488Z,13.20
2022-10-25T17:26:37.371Z,13.20
2022-10-25T17:29:05.207Z,13.20
2022-10-25T17:31:35.169Z,13.20
2022-10-25T17:34:03.383Z,13.20
2022-10-25T17:36:32.578Z,13.10
2022-10-25T17:39:00.685Z,13.10
2022-10-25T17:41:27.784Z,13.00
2022-10-25T17:43:56.761Z,12.90
2022-10-25T17:46:27.808Z,12.90
2022-10-25T17:48:56.672Z,12.80
2022-10-25T17:51:23.763Z,12.70
2022-10-25T17:53:55.274Z,12.70
2022-10-25T17:56:24.115Z,12.60
2022-10-25T17:58:54.948Z,12.60
2022-10-25T18:01:25.179Z,12.60
2022-10-25T18:03:54.238Z,12.50
2022-10-25T18:08:58.200Z,12.50
2022-10-25T18:11:28.491Z,12.40
2022-10-25T18:14:01.964Z,12.40
2022-10-25T18:16:31.274Z,12.40
2022-10-25T18:19:01.168Z,12.30
2022-10-25T18:21:28.851Z,12.30
2022-10-25T18:23:57.464Z,12.20
2022-10-25T18:26:25.342Z,12.20
2022-10-25T18:28:55.525Z,12.10
2022-10-25T18:31:22.700Z,12.10
2022-10-25T18:33:49.787Z,12.00
2022-10-25T18:36:19.770Z,12.00
2022-10-25T18:38:53.209Z,12.00
2022-10-25T18:41:23.703Z,12.00
2022-10-25T18:43:50.994Z,12.00
2022-10-25T18:46:18.435Z,11.90
2022-10-25T18:48:51.393Z,11.90
2022-10-25T18:51:20.478Z,11.80
2022-10-25T18:53:54.024Z,11.80
2022-10-25T18:56:28.614Z,11.70
2022-10-25T18:59:00.799Z,11.70
2022-10-25T19:01:36.800Z,11.60
2022-10-25T19:04:12.745Z,11.60
2022-10-25T19:06:41.395Z,11.50
2022-10-25T19:09:09.385Z,11.60
2022-10-25T19:11:39.703Z,11.50
2022-10-25T19:14:07.420Z,11.50
2022-10-25T19:16:39.802Z,11.50
2022-10-25T19:19:12.153Z,11.50
2022-10-25T19:21:39.339Z,11.40
2022-10-25T19:24:16.109Z,11.30
2022-10-25T19:26:44.183Z,11.30
2022-10-25T19:29:15.087Z,11.30
2022-10-25T19:31:42.942Z,11.30
2022-10-25T19:34:10.189Z,11.30
2022-10-25T19:36:37.249Z,11.30
2022-10-25T19:39:04.749Z,11.30
2022-10-25T19:41:31.883Z,11.40
2022-10-25T19:44:03.321Z,11.30
2022-10-25T19:46:31.229Z,11.30
2022-10-25T19:49:00.422Z,11.30
2022-10-25T19:51:27.477Z,11.30
2022-10-25T19:53:54.687Z,11.20
2022-10-25T19:56:23.318Z,11.20
2022-10-25T19:58:51.048Z,11.20
2022-10-25T20:01:23.538Z,11.20
2022-10-25T20:03:52.751Z,11.20
2022-10-25T20:06:25.012Z,11.20
2022-10-25T20:08:52.749Z,11.20
2022-10-25T20:11:20.909Z,11.10
2022-10-25T20:13:48.719Z,11.10
2022-10-25T20:16:15.715Z,11.00
2022-10-25T20:18:43.159Z,11.00
2022-10-25T20:21:15.747Z,11.00
2022-10-25T20:23:49.276Z,11.00
2022-10-25T20:26:19.194Z,11.00
2022-10-25T20:28:47.322Z,10.80
2022-10-25T20:31:15.512Z,10.70
2022-10-25T20:33:43.173Z,10.60
2022-10-25T20:36:12.609Z,10.60
2022-10-25T20:38:40.127Z,10.60
2022-10-25T20:41:10.731Z,10.60
2022-10-25T20:43:38.891Z,10.60
2022-10-25T20:46:08.217Z,10.50
2022-10-25T20:48:35.494Z,10.60
2022-10-25T20:51:05.367Z,10.60
2022-10-25T20:53:37.442Z,10.70
2022-10-25T20:56:05.388Z,10.70
2022-10-25T20:58:34.307Z,10.70
2022-10-25T21:01:02.085Z,10.60
2022-10-25T21:03:31.054Z,10.60
2022-10-25T21:06:00.651Z,10.50
2022-10-25T21:08:27.672Z,10.50
2022-10-25T21:10:56.562Z,10.50
2022-10-25T21:13:24.697Z,10.50
2022-10-25T21:15:53.583Z,10.50
2022-10-25T21:18:21.235Z,10.60
2022-10-25T21:20:49.194Z,10.50
2022-10-25T21:23:16.262Z,10.50
2022-10-25T21:25:43.260Z,10.40
2022-10-25T21:28:10.262Z,10.50
2022-10-25T21:30:37.286Z,10.50
2022-10-25T21:33:04.946Z,10.60
2022-10-25T21:35:33.053Z,10.60
2022-10-25T21:38:00.137Z,10.70
2022-10-25T21:40:27.144Z,10.70
2022-10-25T21:42:57.286Z,10.70
2022-10-25T21:45:24.722Z,10.80
2022-10-25T21:47:52.240Z,10.90
2022-10-25T21:50:19.366Z,10.90
2022-10-25T21:52:46.389Z,10.90
2022-10-25T21:55:13.401Z,10.90
2022-10-25T21:57:40.408Z,10.90
2022-10-25T22:00:08.302Z,10.90
2022-10-25T22:02:35.401Z,10.90
2022-10-25T22:05:02.540Z,10.90
2022-10-25T22:07:29.542Z,10.90
2022-10-25T22:09:56.590Z,10.90
2022-10-25T22:12:23.580Z,10.90
2022-10-25T22:14:50.591Z,10.90
2022-10-25T22:17:17.661Z,10.90
2022-10-25T22:19:44.672Z,10.90
2022-10-25T22:22:11.630Z,10.90
2022-10-25T22:24:38.871Z,10.90
2022-10-25T22:27:05.882Z,10.90
2022-10-25T22:29:32.918Z,10.90
2022-10-25T22:31:59.923Z,10.90
2022-10-25T22:34:28.032Z,10.90
2022-10-25T22:36:55.065Z,10.90
2022-10-25T22:39:22.071Z,10.90
2022-10-25T22:41:52.944Z,10.90
2022-10-25T22:44:19.973Z,10.90
2022-10-25T22:46:47.072Z,10.90
2022-10-25T22:49:14.140Z,10.90
2022-10-25T22:51:41.096Z,10.90
2022-10-25T22:54:08.473Z,10.90
2022-10-25T22:56:35.714Z,10.90
2022-10-25T22:59:05.407Z,10.90
2022-10-25T23:01:35.654Z,10.80
2022-10-25T23:04:04.821Z,10.90
2022-10-25T23:06:34.344Z,10.90
2022-10-25T23:09:05.164Z,10.90
2022-10-25T23:11:35.094Z,10.90
2022-10-25T23:14:02.606Z,10.90
2022-10-25T23:16:30.481Z,11.00
2022-10-25T23:18:57.860Z,11.00
2022-10-25T23:21:27.042Z,11.00
2022-10-25T23:23:54.754Z,11.00
2022-10-25T23:26:23.170Z,11.00
2022-10-25T23:28:50.570Z,11.10
2022-10-25T23:31:18.124Z,11.10
2022-10-25T23:33:45.491Z,11.10
2022-10-25T23:36:17.894Z,11.20
2022-10-25T23:38:45.129Z,11.20
2022-10-25T23:41:12.748Z,11.20
2022-10-25T23:43:43.364Z,11.30
2022-10-25T23:46:11.402Z,11.30
2022-10-25T23:48:38.784Z,11.30
2022-10-25T23:51:07.208Z,11.30
2022-10-25T23:53:35.130Z,11.30
2022-10-25T23:56:03.692Z,11.30
2022-10-25T23:58:30.726Z,11.40
